sensor_id;sensor_type;location;lat;lon;timestamp;P1;durP1;ratioP1;P2;durP2;ratioP2
50739;SDS011;36704;52.524;17.580;2023-03-01T00:01:52;123.93;;;45.85;;
50739;SDS011;36704;52.524;17.580;2023-03-01T00:04:39;111.28;;;45.45;;
50739;SDS011;36704;52.524;17.580;2023-03-01T00:07:25;128.30;;;45.63;;
50739;SDS011;36704;52.524;17.580;2023-03-01T00:10:12;110.38;;;43.42;;
50739;SDS011;36704;52.524;17.580;2023-03-01T00:12:58;117.40;;;46.92;;
50739;SDS011;36704;52.524;17.580;2023-03-01T00:15:45;154.48;;;54.05;;
50739;SDS011;36704;52.524;17.580;2023-03-01T00:18:32;353.25;;;102.45;;
50739;SDS011;36704;52.524;17.580;2023-03-01T00:21:20;437.95;;;125.75;;
50739;SDS011;36704;52.524;17.580;2023-03-01T00:24:08;350.73;;;99.28;;
50739;SDS011;36704;52.524;17.580;2023-03-01T00:26:56;317.15;;;91.57;;
50739;SDS011;36704;52.524;17.580;2023-03-01T00:29:42;331.33;;;88.47;;
50739;SDS011;36704;52.524;17.580;2023-03-01T00:32:29;287.25;;;77.70;;
50739;SDS011;36704;52.524;17.580;2023-03-01T00:35:16;238.52;;;64.43;;
50739;SDS011;36704;52.524;17.580;2023-03-01T00:38:02;244.18;;;65.72;;
50739;SDS011;36704;52.524;17.580;2023-03-01T00:40:50;197.27;;;56.95;;
50739;SDS011;36704;52.524;17.580;2023-03-01T00:43:37;169.63;;;51.85;;
50739;SDS011;36704;52.524;17.580;2023-03-01T00:46:24;164.00;;;48.72;;
50739;SDS011;36704;52.524;17.580;2023-03-01T00:49:12;149.95;;;50.28;;
50739;SDS011;36704;52.524;17.580;2023-03-01T00:51:59;148.77;;;49.10;;
50739;SDS011;36704;52.524;17.580;2023-03-01T00:54:45;146.27;;;50.70;;
50739;SDS011;36704;52.524;17.580;2023-03-01T00:57:33;147.05;;;47.63;;
50739;SDS011;36704;52.524;17.580;2023-03-01T01:00:19;138.85;;;46.05;;
50739;SDS011;36704;52.524;17.580;2023-03-01T01:03:07;137.15;;;45.88;;
50739;SDS011;36704;52.524;17.580;2023-03-01T01:05:54;119.07;;;40.40;;
50739;SDS011;36704;52.524;17.580;2023-03-01T01:08:41;125.22;;;41.80;;
50739;SDS011;36704;52.524;17.580;2023-03-01T01:11:27;129.27;;;43.08;;
50739;SDS011;36704;52.524;17.580;2023-03-01T01:14:16;115.70;;;41.13;;
50739;SDS011;36704;52.524;17.580;2023-03-01T01:17:04;100.63;;;39.65;;
50739;SDS011;36704;52.524;17.580;2023-03-01T01:19:51;109.35;;;39.70;;
50739;SDS011;36704;52.524;17.580;2023-03-01T01:22:37;94.50;;;38.25;;
50739;SDS011;36704;52.524;17.580;2023-03-01T01:25:25;84.03;;;35.35;;
50739;SDS011;36704;52.524;17.580;2023-03-01T01:28:12;90.28;;;36.03;;
50739;SDS011;36704;52.524;17.580;2023-03-01T01:30:58;88.82;;;35.88;;
50739;SDS011;36704;52.524;17.580;2023-03-01T01:33:46;90.57;;;36.42;;
50739;SDS011;36704;52.524;17.580;2023-03-01T01:36:33;88.68;;;36.13;;
50739;SDS011;36704;52.524;17.580;2023-03-01T01:39:21;102.43;;;39.20;;
50739;SDS011;36704;52.524;17.580;2023-03-01T01:42:15;101.43;;;39.67;;
50739;SDS011;36704;52.524;17.580;2023-03-01T01:48:10;87.28;;;37.75;;
50739;SDS011;36704;52.524;17.580;2023-03-01T01:50:59;91.20;;;36.08;;
50739;SDS011;36704;52.524;17.580;2023-03-01T01:53:49;85.10;;;36.15;;
50739;SDS011;36704;52.524;17.580;2023-03-01T01:56:38;100.63;;;37.33;;
50739;SDS011;36704;52.524;17.580;2023-03-01T01:59:26;103.28;;;38.83;;
50739;SDS011;36704;52.524;17.580;2023-03-01T02:02:14;91.63;;;39.20;;
50739;SDS011;36704;52.524;17.580;2023-03-01T02:05:03;93.45;;;38.47;;
50739;SDS011;36704;52.524;17.580;2023-03-01T02:07:56;107.38;;;39.22;;
50739;SDS011;36704;52.524;17.580;2023-03-01T02:10:45;96.85;;;38.15;;
50739;SDS011;36704;52.524;17.580;2023-03-01T02:13:32;97.75;;;36.00;;
50739;SDS011;36704;52.524;17.580;2023-03-01T02:16:20;95.05;;;38.92;;
50739;SDS011;36704;52.524;17.580;2023-03-01T02:19:06;99.15;;;38.75;;
50739;SDS011;36704;52.524;17.580;2023-03-01T02:22:03;109.15;;;40.85;;
50739;SDS011;36704;52.524;17.580;2023-03-01T02:31:01;113.95;;;39.33;;
50739;SDS011;36704;52.524;17.580;2023-03-01T02:34:10;99.88;;;37.17;;
50739;SDS011;36704;52.524;17.580;2023-03-01T02:37:07;95.30;;;36.80;;
50739;SDS011;36704;52.524;17.580;2023-03-01T02:39:58;93.32;;;37.15;;
50739;SDS011;36704;52.524;17.580;2023-03-01T02:42:51;95.50;;;36.05;;
50739;SDS011;36704;52.524;17.580;2023-03-01T02:45:43;88.43;;;37.13;;
50739;SDS011;36704;52.524;17.580;2023-03-01T02:48:39;82.90;;;36.15;;
50739;SDS011;36704;52.524;17.580;2023-03-01T02:54:34;87.85;;;34.58;;
50739;SDS011;36704;52.524;17.580;2023-03-01T02:57:23;85.65;;;34.45;;
50739;SDS011;36704;52.524;17.580;2023-03-01T03:00:16;84.10;;;35.20;;
50739;SDS011;36704;52.524;17.580;2023-03-01T03:03:06;88.20;;;35.53;;
50739;SDS011;36704;52.524;17.580;2023-03-01T03:05:53;78.20;;;32.40;;
50739;SDS011;36704;52.524;17.580;2023-03-01T03:08:40;78.43;;;33.33;;
50739;SDS011;36704;52.524;17.580;2023-03-01T03:11:27;80.07;;;32.95;;
50739;SDS011;36704;52.524;17.580;2023-03-01T03:14:15;88.40;;;34.63;;
50739;SDS011;36704;52.524;17.580;2023-03-01T03:17:05;91.38;;;33.33;;
50739;SDS011;36704;52.524;17.580;2023-03-01T03:19:55;80.50;;;34.03;;
50739;SDS011;36704;52.524;17.580;2023-03-01T03:22:42;81.25;;;33.28;;
50739;SDS011;36704;52.524;17.580;2023-03-01T03:25:29;76.40;;;33.22;;
50739;SDS011;36704;52.524;17.580;2023-03-01T03:28:16;76.95;;;32.53;;
50739;SDS011;36704;52.524;17.580;2023-03-01T03:31:05;75.38;;;32.88;;
50739;SDS011;36704;52.524;17.580;2023-03-01T03:33:52;77.97;;;34.22;;
50739;SDS011;36704;52.524;17.580;2023-03-01T03:36:39;79.53;;;34.10;;
50739;SDS011;36704;52.524;17.580;2023-03-01T03:39:26;82.95;;;34.97;;
50739;SDS011;36704;52.524;17.580;2023-03-01T03:42:13;83.75;;;33.33;;
50739;SDS011;36704;52.524;17.580;2023-03-01T03:45:00;89.57;;;34.28;;
50739;SDS011;36704;52.524;17.580;2023-03-01T03:47:47;72.45;;;31.30;;
50739;SDS011;36704;52.524;17.580;2023-03-01T03:50:34;77.25;;;34.72;;
50739;SDS011;36704;52.524;17.580;2023-03-01T03:53:20;86.88;;;35.45;;
50739;SDS011;36704;52.524;17.580;2023-03-01T03:56:08;79.55;;;34.08;;
50739;SDS011;36704;52.524;17.580;2023-03-01T03:58:57;85.32;;;35.90;;
50739;SDS011;36704;52.524;17.580;2023-03-01T04:01:44;75.68;;;33.78;;
50739;SDS011;36704;52.524;17.580;2023-03-01T04:04:31;84.65;;;35.67;;
50739;SDS011;36704;52.524;17.580;2023-03-01T04:07:17;86.72;;;36.35;;
50739;SDS011;36704;52.524;17.580;2023-03-01T04:10:05;84.20;;;34.47;;
50739;SDS011;36704;52.524;17.580;2023-03-01T04:12:56;87.22;;;36.22;;
50739;SDS011;36704;52.524;17.580;2023-03-01T04:15:43;88.40;;;35.05;;
50739;SDS011;36704;52.524;17.580;2023-03-01T04:18:30;84.07;;;36.60;;
50739;SDS011;36704;52.524;17.580;2023-03-01T04:21:16;81.38;;;35.08;;
50739;SDS011;36704;52.524;17.580;2023-03-01T04:24:03;93.53;;;37.67;;
50739;SDS011;36704;52.524;17.580;2023-03-01T04:26:50;88.18;;;35.15;;
50739;SDS011;36704;52.524;17.580;2023-03-01T04:29:36;83.13;;;34.00;;
50739;SDS011;36704;52.524;17.580;2023-03-01T04:32:23;82.75;;;35.45;;
50739;SDS011;36704;52.524;17.580;2023-03-01T04:35:09;80.80;;;35.15;;
50739;SDS011;36704;52.524;17.580;2023-03-01T04:37:56;79.40;;;35.85;;
50739;SDS011;36704;52.524;17.580;2023-03-01T04:40:43;79.07;;;34.78;;
50739;SDS011;36704;52.524;17.580;2023-03-01T04:43:31;80.18;;;35.63;;
50739;SDS011;36704;52.524;17.580;2023-03-01T04:46:18;80.32;;;34.40;;
50739;SDS011;36704;52.524;17.580;2023-03-01T04:49:06;85.03;;;34.63;;
50739;SDS011;36704;52.524;17.580;2023-03-01T04:51:53;80.25;;;35.70;;
50739;SDS011;36704;52.524;17.580;2023-03-01T04:54:40;86.25;;;35.97;;
50739;SDS011;36704;52.524;17.580;2023-03-01T04:57:29;81.32;;;35.28;;
50739;SDS011;36704;52.524;17.580;2023-03-01T05:00:16;86.32;;;35.75;;
50739;SDS011;36704;52.524;17.580;2023-03-01T05:03:08;83.25;;;36.58;;
50739;SDS011;36704;52.524;17.580;2023-03-01T05:05:58;87.72;;;36.25;;
50739;SDS011;36704;52.524;17.580;2023-03-01T05:08:45;90.55;;;36.78;;
50739;SDS011;36704;52.524;17.580;2023-03-01T05:11:33;97.50;;;39.10;;
50739;SDS011;36704;52.524;17.580;2023-03-01T05:14:21;128.73;;;60.08;;
50739;SDS011;36704;52.524;17.580;2023-03-01T05:17:08;111.85;;;49.70;;
50739;SDS011;36704;52.524;17.580;2023-03-01T05:19:54;91.05;;;40.92;;
50739;SDS011;36704;52.524;17.580;2023-03-01T05:22:42;80.20;;;36.58;;
50739;SDS011;36704;52.524;17.580;2023-03-01T05:25:29;85.13;;;34.65;;
50739;SDS011;36704;52.524;17.580;2023-03-01T05:28:19;89.83;;;36.23;;
50739;SDS011;36704;52.524;17.580;2023-03-01T05:31:06;79.13;;;34.10;;
50739;SDS011;36704;52.524;17.580;2023-03-01T05:33:55;79.82;;;34.35;;
50739;SDS011;36704;52.524;17.580;2023-03-01T05:36:42;87.78;;;35.50;;
50739;SDS011;36704;52.524;17.580;2023-03-01T05:39:29;88.95;;;36.63;;
50739;SDS011;36704;52.524;17.580;2023-03-01T05:42:16;90.80;;;37.67;;
50739;SDS011;36704;52.524;17.580;2023-03-01T05:45:03;85.80;;;36.03;;
50739;SDS011;36704;52.524;17.580;2023-03-01T05:47:51;83.18;;;34.90;;
50739;SDS011;36704;52.524;17.580;2023-03-01T05:50:39;71.55;;;32.38;;
50739;SDS011;36704;52.524;17.580;2023-03-01T05:53:27;81.97;;;35.00;;
50739;SDS011;36704;52.524;17.580;2023-03-01T05:56:14;76.60;;;34.00;;
50739;SDS011;36704;52.524;17.580;2023-03-01T05:59:01;71.68;;;31.98;;
50739;SDS011;36704;52.524;17.580;2023-03-01T06:01:49;89.60;;;33.97;;
50739;SDS011;36704;52.524;17.580;2023-03-01T06:04:36;80.07;;;34.42;;
50739;SDS011;36704;52.524;17.580;2023-03-01T06:07:22;91.38;;;37.83;;
50739;SDS011;36704;52.524;17.580;2023-03-01T06:10:09;87.57;;;38.00;;
50739;SDS011;36704;52.524;17.580;2023-03-01T06:12:57;89.13;;;37.58;;
50739;SDS011;36704;52.524;17.580;2023-03-01T06:15:44;84.90;;;35.85;;
50739;SDS011;36704;52.524;17.580;2023-03-01T06:18:30;90.57;;;34.10;;
50739;SDS011;36704;52.524;17.580;2023-03-01T06:21:17;83.63;;;33.70;;
50739;SDS011;36704;52.524;17.580;2023-03-01T06:24:04;78.35;;;34.40;;
50739;SDS011;36704;52.524;17.580;2023-03-01T06:26:53;78.25;;;34.08;;
50739;SDS011;36704;52.524;17.580;2023-03-01T06:29:39;69.93;;;33.22;;
50739;SDS011;36704;52.524;17.580;2023-03-01T06:32:27;80.30;;;34.03;;
50739;SDS011;36704;52.524;17.580;2023-03-01T06:35:19;80.55;;;32.33;;
50739;SDS011;36704;52.524;17.580;2023-03-01T06:38:06;76.38;;;32.80;;
50739;SDS011;36704;52.524;17.580;2023-03-01T06:40:56;82.38;;;31.45;;
50739;SDS011;36704;52.524;17.580;2023-03-01T06:43:43;70.65;;;31.70;;
50739;SDS011;36704;52.524;17.580;2023-03-01T06:46:29;79.88;;;33.95;;
50739;SDS011;36704;52.524;17.580;2023-03-01T06:49:22;81.32;;;34.97;;
50739;SDS011;36704;52.524;17.580;2023-03-01T06:52:09;81.53;;;34.97;;
50739;SDS011;36704;52.524;17.580;2023-03-01T06:54:56;88.22;;;38.95;;
50739;SDS011;36704;52.524;17.580;2023-03-01T06:57:43;74.68;;;37.13;;
50739;SDS011;36704;52.524;17.580;2023-03-01T07:00:29;74.50;;;32.10;;
50739;SDS011;36704;52.524;17.580;2023-03-01T07:03:17;77.53;;;32.83;;
50739;SDS011;36704;52.524;17.580;2023-03-01T07:06:03;66.75;;;31.00;;
50739;SDS011;36704;52.524;17.580;2023-03-01T07:08:50;80.65;;;36.35;;
50739;SDS011;36704;52.524;17.580;2023-03-01T07:11:37;75.65;;;32.22;;
50739;SDS011;36704;52.524;17.580;2023-03-01T07:14:24;71.35;;;33.65;;
50739;SDS011;36704;52.524;17.580;2023-03-01T07:17:11;70.78;;;30.55;;
50739;SDS011;36704;52.524;17.580;2023-03-01T07:19:58;76.75;;;31.23;;
50739;SDS011;36704;52.524;17.580;2023-03-01T07:22:45;65.57;;;30.08;;
50739;SDS011;36704;52.524;17.580;2023-03-01T07:25:32;62.90;;;29.67;;
50739;SDS011;36704;52.524;17.580;2023-03-01T07:28:18;62.38;;;30.33;;
50739;SDS011;36704;52.524;17.580;2023-03-01T07:31:05;71.18;;;30.33;;
50739;SDS011;36704;52.524;17.580;2023-03-01T07:33:52;84.55;;;35.28;;
50739;SDS011;36704;52.524;17.580;2023-03-01T07:36:39;105.90;;;43.28;;
50739;SDS011;36704;52.524;17.580;2023-03-01T07:39:28;99.75;;;40.90;;
50739;SDS011;36704;52.524;17.580;2023-03-01T07:42:15;94.38;;;42.05;;
50739;SDS011;36704;52.524;17.580;2023-03-01T07:45:03;84.65;;;38.50;;
50739;SDS011;36704;52.524;17.580;2023-03-01T07:47:51;73.72;;;31.55;;
50739;SDS011;36704;52.524;17.580;2023-03-01T07:50:38;77.05;;;31.40;;
50739;SDS011;36704;52.524;17.580;2023-03-01T07:53:25;58.97;;;29.35;;
50739;SDS011;36704;52.524;17.580;2023-03-01T07:56:12;60.72;;;29.85;;
50739;SDS011;36704;52.524;17.580;2023-03-01T07:59:02;82.30;;;31.98;;
50739;SDS011;36704;52.524;17.580;2023-03-01T08:01:49;65.30;;;29.08;;
50739;SDS011;36704;52.524;17.580;2023-03-01T08:04:35;53.92;;;26.30;;
50739;SDS011;36704;52.524;17.580;2023-03-01T08:07:22;63.20;;;30.02;;
50739;SDS011;36704;52.524;17.580;2023-03-01T08:10:09;55.80;;;25.95;;
50739;SDS011;36704;52.524;17.580;2023-03-01T08:12:56;53.72;;;25.52;;
50739;SDS011;36704;52.524;17.580;2023-03-01T08:15:43;52.15;;;24.23;;
50739;SDS011;36704;52.524;17.580;2023-03-01T08:18:30;56.40;;;25.45;;
50739;SDS011;36704;52.524;17.580;2023-03-01T08:21:17;68.25;;;27.60;;
50739;SDS011;36704;52.524;17.580;2023-03-01T08:24:04;61.42;;;27.80;;
50739;SDS011;36704;52.524;17.580;2023-03-01T08:26:53;83.10;;;32.95;;
50739;SDS011;36704;52.524;17.580;2023-03-01T08:29:40;46.28;;;19.50;;
50739;SDS011;36704;52.524;17.580;2023-03-01T08:32:27;33.17;;;16.20;;
50739;SDS011;36704;52.524;17.580;2023-03-01T08:35:14;82.13;;;30.35;;
50739;SDS011;36704;52.524;17.580;2023-03-01T08:38:00;39.30;;;18.17;;
50739;SDS011;36704;52.524;17.580;2023-03-01T08:40:47;24.85;;;12.55;;
50739;SDS011;36704;52.524;17.580;2023-03-01T08:43:33;29.95;;;12.52;;
50739;SDS011;36704;52.524;17.580;2023-03-01T08:46:23;29.33;;;13.65;;
50739;SDS011;36704;52.524;17.580;2023-03-01T08:49:11;35.97;;;17.52;;
50739;SDS011;36704;52.524;17.580;2023-03-01T08:51:59;25.45;;;12.35;;
50739;SDS011;36704;52.524;17.580;2023-03-01T08:54:49;25.33;;;12.35;;
50739;SDS011;36704;52.524;17.580;2023-03-01T08:57:36;34.05;;;13.18;;
50739;SDS011;36704;52.524;17.580;2023-03-01T09:00:22;25.17;;;12.10;;
50739;SDS011;36704;52.524;17.580;2023-03-01T09:03:09;23.88;;;11.68;;
50739;SDS011;36704;52.524;17.580;2023-03-01T09:06:02;79.32;;;25.83;;
50739;SDS011;36704;52.524;17.580;2023-03-01T09:08:50;42.47;;;17.05;;
50739;SDS011;36704;52.524;17.580;2023-03-01T09:11:36;24.38;;;12.40;;
50739;SDS011;36704;52.524;17.580;2023-03-01T09:14:23;24.95;;;11.20;;
50739;SDS011;36704;52.524;17.580;2023-03-01T09:17:10;22.38;;;10.15;;
50739;SDS011;36704;52.524;17.580;2023-03-01T09:19:56;22.55;;;10.45;;
50739;SDS011;36704;52.524;17.580;2023-03-01T09:22:43;19.50;;;9.75;;
50739;SDS011;36704;52.524;17.580;2023-03-01T09:25:30;22.95;;;10.73;;
50739;SDS011;36704;52.524;17.580;2023-03-01T09:28:18;18.65;;;8.40;;
50739;SDS011;36704;52.524;17.580;2023-03-01T09:31:15;17.85;;;9.07;;
50739;SDS011;36704;52.524;17.580;2023-03-01T09:34:02;18.90;;;9.25;;
50739;SDS011;36704;52.524;17.580;2023-03-01T09:36:49;28.50;;;10.18;;
50739;SDS011;36704;52.524;17.580;2023-03-01T09:39:37;19.13;;;9.93;;
50739;SDS011;36704;52.524;17.580;2023-03-01T09:42:24;17.35;;;8.27;;
50739;SDS011;36704;52.524;17.580;2023-03-01T09:45:11;20.48;;;9.57;;
50739;SDS011;36704;52.524;17.580;2023-03-01T09:48:06;17.17;;;8.18;;
50739;SDS011;36704;52.524;17.580;2023-03-01T09:50:59;20.75;;;9.07;;
50739;SDS011;36704;52.524;17.580;2023-03-01T09:53:48;20.67;;;9.80;;
50739;SDS011;36704;52.524;17.580;2023-03-01T10:02:51;33.85;;;10.63;;
50739;SDS011;36704;52.524;17.580;2023-03-01T10:06:01;19.67;;;8.13;;
50739;SDS011;36704;52.524;17.580;2023-03-01T10:09:21;18.80;;;9.38;;
50739;SDS011;36704;52.524;17.580;2023-03-01T10:12:12;24.23;;;10.77;;
50739;SDS011;36704;52.524;17.580;2023-03-01T10:15:15;27.52;;;11.57;;
50739;SDS011;36704;52.524;17.580;2023-03-01T10:18:05;14.75;;;7.43;;
50739;SDS011;36704;52.524;17.580;2023-03-01T10:21:00;15.00;;;6.60;;
50739;SDS011;36704;52.524;17.580;2023-03-01T10:23:49;18.25;;;7.63;;
50739;SDS011;36704;52.524;17.580;2023-03-01T10:26:40;17.17;;;7.30;;
50739;SDS011;36704;52.524;17.580;2023-03-01T10:29:39;13.70;;;7.38;;
50739;SDS011;36704;52.524;17.580;2023-03-01T10:32:33;23.30;;;10.10;;
50739;SDS011;36704;52.524;17.580;2023-03-01T10:35:28;13.35;;;6.65;;
50739;SDS011;36704;52.524;17.580;2023-03-01T10:38:18;19.13;;;12.00;;
50739;SDS011;36704;52.524;17.580;2023-03-01T10:41:06;19.20;;;8.02;;
50739;SDS011;36704;52.524;17.580;2023-03-01T10:43:54;17.20;;;8.38;;
50739;SDS011;36704;52.524;17.580;2023-03-01T10:46:42;17.08;;;7.75;;
50739;SDS011;36704;52.524;17.580;2023-03-01T10:49:28;18.73;;;7.90;;
50739;SDS011;36704;52.524;17.580;2023-03-01T10:52:18;15.13;;;8.25;;
50739;SDS011;36704;52.524;17.580;2023-03-01T11:01:03;17.05;;;9.00;;
50739;SDS011;36704;52.524;17.580;2023-03-01T11:04:09;15.55;;;8.43;;
50739;SDS011;36704;52.524;17.580;2023-03-01T11:06:59;15.63;;;9.02;;
50739;SDS011;36704;52.524;17.580;2023-03-01T11:09:47;14.32;;;8.40;;
50739;SDS011;36704;52.524;17.580;2023-03-01T11:12:34;18.40;;;8.80;;
50739;SDS011;36704;52.524;17.580;2023-03-01T11:15:25;17.27;;;9.05;;
50739;SDS011;36704;52.524;17.580;2023-03-01T11:18:22;15.85;;;9.13;;
50739;SDS011;36704;52.524;17.580;2023-03-01T11:21:32;18.83;;;9.52;;
50739;SDS011;36704;52.524;17.580;2023-03-01T11:24:29;14.93;;;8.82;;
50739;SDS011;36704;52.524;17.580;2023-03-01T11:27:19;15.48;;;8.40;;
50739;SDS011;36704;52.524;17.580;2023-03-01T11:31:06;17.92;;;8.77;;
50739;SDS011;36704;52.524;17.580;2023-03-01T11:34:10;18.83;;;8.20;;
50739;SDS011;36704;52.524;17.580;2023-03-01T11:36:59;17.52;;;8.65;;
50739;SDS011;36704;52.524;17.580;2023-03-01T11:39:59;15.05;;;7.80;;
50739;SDS011;36704;52.524;17.580;2023-03-01T11:43:11;16.20;;;8.43;;
50739;SDS011;36704;52.524;17.580;2023-03-01T11:59:01;14.73;;;7.70;;
50739;SDS011;36704;52.524;17.580;2023-03-01T12:01:48;16.15;;;8.48;;
50739;SDS011;36704;52.524;17.580;2023-03-01T12:04:59;18.55;;;8.45;;
50739;SDS011;36704;52.524;17.580;2023-03-01T12:07:56;14.10;;;7.80;;
50739;SDS011;36704;52.524;17.580;2023-03-01T12:11:02;16.88;;;8.48;;
50739;SDS011;36704;52.524;17.580;2023-03-01T12:13:54;21.42;;;9.38;;
50739;SDS011;36704;52.524;17.580;2023-03-01T12:17:20;21.53;;;10.60;;
50739;SDS011;36704;52.524;17.580;2023-03-01T12:29:25;19.77;;;10.73;;
50739;SDS011;36704;52.524;17.580;2023-03-01T12:38:40;16.02;;;9.20;;
50739;SDS011;36704;52.524;17.580;2023-03-01T12:41:43;17.35;;;8.88;;
50739;SDS011;36704;52.524;17.580;2023-03-01T12:50:52;16.33;;;8.93;;
50739;SDS011;36704;52.524;17.580;2023-03-01T12:53:44;23.08;;;13.82;;
50739;SDS011;36704;52.524;17.580;2023-03-01T12:56:39;17.45;;;9.00;;
50739;SDS011;36704;52.524;17.580;2023-03-01T12:59:38;20.65;;;9.48;;
50739;SDS011;36704;52.524;17.580;2023-03-01T13:08:15;17.85;;;9.65;;
50739;SDS011;36704;52.524;17.580;2023-03-01T13:11:11;17.30;;;9.13;;
50739;SDS011;36704;52.524;17.580;2023-03-01T13:17:29;17.90;;;9.23;;
50739;SDS011;36704;52.524;17.580;2023-03-01T13:20:21;17.60;;;9.30;;
50739;SDS011;36704;52.524;17.580;2023-03-01T13:26:15;16.42;;;8.57;;
50739;SDS011;36704;52.524;17.580;2023-03-01T13:29:02;15.10;;;8.32;;
50739;SDS011;36704;52.524;17.580;2023-03-01T13:34:43;16.75;;;8.13;;
50739;SDS011;36704;52.524;17.580;2023-03-01T13:37:35;20.65;;;10.13;;
50739;SDS011;36704;52.524;17.580;2023-03-01T13:43:25;18.23;;;8.00;;
50739;SDS011;36704;52.524;17.580;2023-03-01T13:46:23;15.57;;;8.43;;
50739;SDS011;36704;52.524;17.580;2023-03-01T13:49:21;15.15;;;7.53;;
50739;SDS011;36704;52.524;17.580;2023-03-01T13:52:29;13.88;;;7.25;;
50739;SDS011;36704;52.524;17.580;2023-03-01T13:59:16;15.75;;;8.43;;
50739;SDS011;36704;52.524;17.580;2023-03-01T14:02:10;15.90;;;7.55;;
50739;SDS011;36704;52.524;17.580;2023-03-01T14:05:01;8.73;;;5.28;;
50739;SDS011;36704;52.524;17.580;2023-03-01T14:07:50;12.25;;;7.28;;
50739;SDS011;36704;52.524;17.580;2023-03-01T14:20:29;9.93;;;5.10;;
50739;SDS011;36704;52.524;17.580;2023-03-01T14:23:19;9.55;;;5.43;;
50739;SDS011;36704;52.524;17.580;2023-03-01T14:26:07;9.68;;;5.15;;
50739;SDS011;36704;52.524;17.580;2023-03-01T14:28:55;11.63;;;5.35;;
50739;SDS011;36704;52.524;17.580;2023-03-01T14:31:42;12.45;;;6.53;;
50739;SDS011;36704;52.524;17.580;2023-03-01T14:34:42;15.32;;;8.40;;
50739;SDS011;36704;52.524;17.580;2023-03-01T14:37:32;11.30;;;6.28;;
50739;SDS011;36704;52.524;17.580;2023-03-01T14:40:21;13.55;;;6.50;;
50739;SDS011;36704;52.524;17.580;2023-03-01T14:43:12;12.65;;;6.40;;
50739;SDS011;36704;52.524;17.580;2023-03-01T14:46:04;13.43;;;6.38;;
50739;SDS011;36704;52.524;17.580;2023-03-01T14:48:51;12.38;;;6.32;;
50739;SDS011;36704;52.524;17.580;2023-03-01T14:51:43;13.73;;;6.40;;
50739;SDS011;36704;52.524;17.580;2023-03-01T14:54:43;11.27;;;6.20;;
50739;SDS011;36704;52.524;17.580;2023-03-01T14:57:42;13.48;;;7.22;;
50739;SDS011;36704;52.524;17.580;2023-03-01T15:00:30;12.75;;;6.55;;
50739;SDS011;36704;52.524;17.580;2023-03-01T15:03:31;14.32;;;7.68;;
50739;SDS011;36704;52.524;17.580;2023-03-01T15:06:19;14.88;;;7.50;;
50739;SDS011;36704;52.524;17.580;2023-03-01T15:09:11;15.18;;;7.43;;
50739;SDS011;36704;52.524;17.580;2023-03-01T15:11:59;15.85;;;8.63;;
50739;SDS011;36704;52.524;17.580;2023-03-01T15:14:46;19.50;;;8.70;;
50739;SDS011;36704;52.524;17.580;2023-03-01T15:17:50;15.25;;;7.80;;
50739;SDS011;36704;52.524;17.580;2023-03-01T15:20:42;17.38;;;9.13;;
50739;SDS011;36704;52.524;17.580;2023-03-01T15:23:29;15.32;;;8.32;;
50739;SDS011;36704;52.524;17.580;2023-03-01T15:26:30;15.82;;;8.05;;
50739;SDS011;36704;52.524;17.580;2023-03-01T15:29:29;17.25;;;8.68;;
50739;SDS011;36704;52.524;17.580;2023-03-01T15:35:33;17.98;;;8.95;;
50739;SDS011;36704;52.524;17.580;2023-03-01T15:38:33;18.38;;;9.02;;
50739;SDS011;36704;52.524;17.580;2023-03-01T15:41:31;23.08;;;9.35;;
50739;SDS011;36704;52.524;17.580;2023-03-01T15:44:27;28.48;;;10.45;;
50739;SDS011;36704;52.524;17.580;2023-03-01T15:47:29;27.00;;;10.75;;
50739;SDS011;36704;52.524;17.580;2023-03-01T15:50:22;20.30;;;10.25;;
50739;SDS011;36704;52.524;17.580;2023-03-01T15:53:11;22.95;;;10.02;;
50739;SDS011;36704;52.524;17.580;2023-03-01T15:56:00;21.63;;;9.77;;
50739;SDS011;36704;52.524;17.580;2023-03-01T15:58:47;22.88;;;10.95;;
50739;SDS011;36704;52.524;17.580;2023-03-01T16:01:33;27.65;;;12.73;;
50739;SDS011;36704;52.524;17.580;2023-03-01T16:04:20;28.02;;;14.13;;
50739;SDS011;36704;52.524;17.580;2023-03-01T16:07:09;30.10;;;13.73;;
50739;SDS011;36704;52.524;17.580;2023-03-01T16:09:56;30.52;;;14.35;;
50739;SDS011;36704;52.524;17.580;2023-03-01T16:12:44;35.33;;;14.75;;
50739;SDS011;36704;52.524;17.580;2023-03-01T16:15:33;29.35;;;14.27;;
50739;SDS011;36704;52.524;17.580;2023-03-01T16:18:26;37.08;;;14.90;;
50739;SDS011;36704;52.524;17.580;2023-03-01T16:21:14;37.00;;;15.90;;
50739;SDS011;36704;52.524;17.580;2023-03-01T16:24:08;46.47;;;18.38;;
50739;SDS011;36704;52.524;17.580;2023-03-01T16:26:55;65.55;;;25.13;;
50739;SDS011;36704;52.524;17.580;2023-03-01T16:29:45;137.48;;;43.00;;
50739;SDS011;36704;52.524;17.580;2023-03-01T16:32:33;173.55;;;54.42;;
50739;SDS011;36704;52.524;17.580;2023-03-01T16:35:26;119.53;;;44.22;;
50739;SDS011;36704;52.524;17.580;2023-03-01T16:38:13;128.38;;;44.63;;
50739;SDS011;36704;52.524;17.580;2023-03-01T16:41:01;139.00;;;48.45;;
50739;SDS011;36704;52.524;17.580;2023-03-01T16:43:53;119.47;;;45.25;;
50739;SDS011;36704;52.524;17.580;2023-03-01T16:46:41;112.78;;;41.22;;
50739;SDS011;36704;52.524;17.580;2023-03-01T16:49:30;104.97;;;38.38;;
50739;SDS011;36704;52.524;17.580;2023-03-01T16:52:16;131.47;;;48.27;;
50739;SDS011;36704;52.524;17.580;2023-03-01T16:55:04;156.43;;;62.88;;
50739;SDS011;36704;52.524;17.580;2023-03-01T16:57:53;88.85;;;36.90;;
50739;SDS011;36704;52.524;17.580;2023-03-01T17:00:39;100.55;;;37.53;;
50739;SDS011;36704;52.524;17.580;2023-03-01T17:03:26;100.30;;;39.67;;
50739;SDS011;36704;52.524;17.580;2023-03-01T17:06:16;80.65;;;34.65;;
50739;SDS011;36704;52.524;17.580;2023-03-01T17:09:04;88.13;;;34.67;;
50739;SDS011;36704;52.524;17.580;2023-03-01T17:11:51;124.13;;;47.80;;
50739;SDS011;36704;52.524;17.580;2023-03-01T17:14:38;106.05;;;43.22;;
50739;SDS011;36704;52.524;17.580;2023-03-01T17:17:27;106.75;;;41.30;;
50739;SDS011;36704;52.524;17.580;2023-03-01T17:20:14;98.47;;;38.67;;
50739;SDS011;36704;52.524;17.580;2023-03-01T17:23:01;100.95;;;40.70;;
50739;SDS011;36704;52.524;17.580;2023-03-01T17:25:49;82.30;;;36.80;;
50739;SDS011;36704;52.524;17.580;2023-03-01T17:28:38;164.57;;;63.83;;
50739;SDS011;36704;52.524;17.580;2023-03-01T17:31:26;81.20;;;35.30;;
50739;SDS011;36704;52.524;17.580;2023-03-01T17:34:16;78.05;;;33.13;;
50739;SDS011;36704;52.524;17.580;2023-03-01T17:37:03;72.43;;;31.67;;
50739;SDS011;36704;52.524;17.580;2023-03-01T17:39:52;77.63;;;32.63;;
50739;SDS011;36704;52.524;17.580;2023-03-01T17:42:39;77.95;;;32.28;;
50739;SDS011;36704;52.524;17.580;2023-03-01T17:45:26;79.57;;;35.10;;
50739;SDS011;36704;52.524;17.580;2023-03-01T17:48:14;84.70;;;37.55;;
50739;SDS011;36704;52.524;17.580;2023-03-01T17:51:09;83.18;;;36.80;;
50739;SDS011;36704;52.524;17.580;2023-03-01T17:53:57;92.63;;;36.83;;
50739;SDS011;36704;52.524;17.580;2023-03-01T17:56:43;86.45;;;32.00;;